sensor_id;sensor_type;location;lat;lon;timestamp;P1;durP1;ratioP1;P2;durP2;ratioP2
23714;SDS011;12036;50.858;4.472;2023-04-22T00:01:15;37.60;;;19.73;;
23714;SDS011;12036;50.858;4.472;2023-04-22T00:03:42;34.83;;;19.23;;
23714;SDS011;12036;50.858;4.472;2023-04-22T00:06:08;31.13;;;18.67;;
23714;SDS011;12036;50.858;4.472;2023-04-22T00:08:34;36.92;;;20.13;;
23714;SDS011;12036;50.858;4.472;2023-04-22T00:11:00;31.13;;;19.20;;
23714;SDS011;12036;50.858;4.472;2023-04-22T00:13:26;33.90;;;18.40;;
23714;SDS011;12036;50.858;4.472;2023-04-22T00:15:52;31.52;;;19.48;;
23714;SDS011;12036;50.858;4.472;2023-04-22T00:18:18;35.17;;;20.63;;
23714;SDS011;12036;50.858;4.472;2023-04-22T00:20:43;33.45;;;19.73;;
23714;SDS011;12036;50.858;4.472;2023-04-22T00:23:10;35.55;;;18.75;;
23714;SDS011;12036;50.858;4.472;2023-04-22T00:25:37;36.13;;;20.10;;
23714;SDS011;12036;50.858;4.472;2023-04-22T00:28:04;31.73;;;18.90;;
23714;SDS011;12036;50.858;4.472;2023-04-22T00:30:29;30.60;;;20.02;;
23714;SDS011;12036;50.858;4.472;2023-04-22T00:32:55;30.60;;;19.50;;
23714;SDS011;12036;50.858;4.472;2023-04-22T00:35:21;31.33;;;18.60;;
23714;SDS011;12036;50.858;4.472;2023-04-22T00:37:46;31.13;;;18.77;;
23714;SDS011;12036;50.858;4.472;2023-04-22T00:40:12;32.85;;;19.08;;
23714;SDS011;12036;50.858;4.472;2023-04-22T00:42:38;30.75;;;18.80;;
23714;SDS011;12036;50.858;4.472;2023-04-22T00:45:03;28.20;;;18.58;;
23714;SDS011;12036;50.858;4.472;2023-04-22T00:47:33;31.88;;;19.70;;
23714;SDS011;12036;50.858;4.472;2023-04-22T00:50:00;30.45;;;18.83;;
23714;SDS011;12036;50.858;4.472;2023-04-22T00:52:26;31.02;;;19.27;;
23714;SDS011;12036;50.858;4.472;2023-04-22T00:54:52;32.72;;;18.83;;
23714;SDS011;12036;50.858;4.472;2023-04-22T00:57:18;29.77;;;18.35;;
23714;SDS011;12036;50.858;4.472;2023-04-22T00:59:44;28.25;;;17.02;;
23714;SDS011;12036;50.858;4.472;2023-04-22T01:02:11;29.90;;;18.55;;
23714;SDS011;12036;50.858;4.472;2023-04-22T01:04:37;28.90;;;17.92;;
23714;SDS011;12036;50.858;4.472;2023-04-22T01:07:03;27.33;;;16.75;;
23714;SDS011;12036;50.858;4.472;2023-04-22T01:09:29;24.73;;;16.25;;
23714;SDS011;12036;50.858;4.472;2023-04-22T01:11:55;28.40;;;16.98;;
23714;SDS011;12036;50.858;4.472;2023-04-22T01:14:21;29.73;;;18.15;;
23714;SDS011;12036;50.858;4.472;2023-04-22T01:16:48;32.90;;;18.42;;
23714;SDS011;12036;50.858;4.472;2023-04-22T01:19:15;34.35;;;19.73;;
23714;SDS011;12036;50.858;4.472;2023-04-22T01:21:41;31.80;;;18.73;;
23714;SDS011;12036;50.858;4.472;2023-04-22T01:24:09;29.58;;;17.27;;
23714;SDS011;12036;50.858;4.472;2023-04-22T01:26:34;30.60;;;19.23;;
23714;SDS011;12036;50.858;4.472;2023-04-22T01:29:00;29.63;;;17.33;;
23714;SDS011;12036;50.858;4.472;2023-04-22T01:31:27;32.88;;;18.20;;
23714;SDS011;12036;50.858;4.472;2023-04-22T01:33:53;33.75;;;19.13;;
23714;SDS011;12036;50.858;4.472;2023-04-22T01:36:19;31.25;;;18.40;;
23714;SDS011;12036;50.858;4.472;2023-04-22T01:38:45;29.88;;;18.20;;
23714;SDS011;12036;50.858;4.472;2023-04-22T01:41:11;30.52;;;18.42;;
23714;SDS011;12036;50.858;4.472;2023-04-22T01:43:38;28.90;;;18.30;;
23714;SDS011;12036;50.858;4.472;2023-04-22T01:46:04;35.22;;;20.20;;
23714;SDS011;12036;50.858;4.472;2023-04-22T01:48:30;35.50;;;20.38;;
23714;SDS011;12036;50.858;4.472;2023-04-22T01:50:56;33.38;;;19.63;;
23714;SDS011;12036;50.858;4.472;2023-04-22T01:53:22;36.38;;;20.02;;
23714;SDS011;12036;50.858;4.472;2023-04-22T01:55:47;33.75;;;19.02;;
23714;SDS011;12036;50.858;4.472;2023-04-22T01:58:13;35.45;;;19.73;;
23714;SDS011;12036;50.858;4.472;2023-04-22T02:00:39;32.65;;;18.67;;
23714;SDS011;12036;50.858;4.472;2023-04-22T02:03:04;31.13;;;18.33;;
23714;SDS011;12036;50.858;4.472;2023-04-22T02:05:30;31.25;;;17.88;;
23714;SDS011;12036;50.858;4.472;2023-04-22T02:07:56;35.40;;;20.10;;
23714;SDS011;12036;50.858;4.472;2023-04-22T02:10:21;31.85;;;18.60;;
23714;SDS011;12036;50.858;4.472;2023-04-22T02:12:48;32.72;;;19.17;;
23714;SDS011;12036;50.858;4.472;2023-04-22T02:15:13;33.65;;;19.75;;
23714;SDS011;12036;50.858;4.472;2023-04-22T02:17:40;32.50;;;19.38;;
23714;SDS011;12036;50.858;4.472;2023-04-22T02:20:06;31.77;;;18.95;;
23714;SDS011;12036;50.858;4.472;2023-04-22T02:22:35;29.23;;;17.20;;
23714;SDS011;12036;50.858;4.472;2023-04-22T02:25:01;28.13;;;17.20;;
23714;SDS011;12036;50.858;4.472;2023-04-22T02:27:27;32.08;;;18.67;;
23714;SDS011;12036;50.858;4.472;2023-04-22T02:29:53;29.70;;;17.83;;
23714;SDS011;12036;50.858;4.472;2023-04-22T02:32:18;30.63;;;18.17;;
23714;SDS011;12036;50.858;4.472;2023-04-22T02:34:44;31.55;;;18.50;;
23714;SDS011;12036;50.858;4.472;2023-04-22T02:37:11;28.73;;;17.88;;
23714;SDS011;12036;50.858;4.472;2023-04-22T02:39:36;31.30;;;18.33;;
23714;SDS011;12036;50.858;4.472;2023-04-22T02:42:02;24.98;;;16.13;;
23714;SDS011;12036;50.858;4.472;2023-04-22T02:44:28;29.10;;;17.70;;
23714;SDS011;12036;50.858;4.472;2023-04-22T02:46:53;26.50;;;16.83;;
23714;SDS011;12036;50.858;4.472;2023-04-22T02:49:19;26.38;;;16.45;;
23714;SDS011;12036;50.858;4.472;2023-04-22T02:51:45;26.50;;;16.98;;
23714;SDS011;12036;50.858;4.472;2023-04-22T02:54:10;26.85;;;16.90;;
23714;SDS011;12036;50.858;4.472;2023-04-22T02:56:36;26.38;;;16.27;;
23714;SDS011;12036;50.858;4.472;2023-04-22T02:59:02;31.88;;;18.95;;
23714;SDS011;12036;50.858;4.472;2023-04-22T03:01:27;28.73;;;18.00;;
23714;SDS011;12036;50.858;4.472;2023-04-22T03:03:53;33.25;;;18.88;;
23714;SDS011;12036;50.858;4.472;2023-04-22T03:06:20;28.33;;;16.85;;
23714;SDS011;12036;50.858;4.472;2023-04-22T03:08:45;26.52;;;16.65;;
23714;SDS011;12036;50.858;4.472;2023-04-22T03:11:11;27.05;;;17.13;;
23714;SDS011;12036;50.858;4.472;2023-04-22T03:13:37;31.48;;;17.95;;
23714;SDS011;12036;50.858;4.472;2023-04-22T03:16:03;28.75;;;18.75;;
23714;SDS011;12036;50.858;4.472;2023-04-22T03:18:29;31.27;;;18.42;;
23714;SDS011;12036;50.858;4.472;2023-04-22T03:20:54;32.90;;;18.80;;
23714;SDS011;12036;50.858;4.472;2023-04-22T03:23:20;33.83;;;19.02;;
23714;SDS011;12036;50.858;4.472;2023-04-22T03:25:46;34.35;;;19.05;;
23714;SDS011;12036;50.858;4.472;2023-04-22T03:28:12;31.45;;;18.55;;
23714;SDS011;12036;50.858;4.472;2023-04-22T03:30:37;29.98;;;18.08;;
23714;SDS011;12036;50.858;4.472;2023-04-22T03:33:03;32.45;;;18.83;;
23714;SDS011;12036;50.858;4.472;2023-04-22T03:35:29;32.85;;;19.55;;
23714;SDS011;12036;50.858;4.472;2023-04-22T03:37:55;34.08;;;18.83;;
23714;SDS011;12036;50.858;4.472;2023-04-22T03:40:20;31.58;;;18.75;;
23714;SDS011;12036;50.858;4.472;2023-04-22T03:42:46;33.55;;;19.73;;
23714;SDS011;12036;50.858;4.472;2023-04-22T03:45:12;32.50;;;19.55;;
23714;SDS011;12036;50.858;4.472;2023-04-22T03:47:37;31.60;;;19.00;;
23714;SDS011;12036;50.858;4.472;2023-04-22T03:50:03;33.00;;;19.60;;
23714;SDS011;12036;50.858;4.472;2023-04-22T03:52:29;29.65;;;18.17;;
23714;SDS011;12036;50.858;4.472;2023-04-22T03:54:55;38.28;;;19.90;;
23714;SDS011;12036;50.858;4.472;2023-04-22T03:57:20;33.38;;;19.33;;
23714;SDS011;12036;50.858;4.472;2023-04-22T03:59:46;31.77;;;19.17;;
23714;SDS011;12036;50.858;4.472;2023-04-22T04:02:12;30.95;;;19.23;;
23714;SDS011;12036;50.858;4.472;2023-04-22T04:04:37;34.10;;;19.88;;
23714;SDS011;12036;50.858;4.472;2023-04-22T04:07:03;34.67;;;20.13;;
23714;SDS011;12036;50.858;4.472;2023-04-22T04:09:28;32.28;;;19.58;;
23714;SDS011;12036;50.858;4.472;2023-04-22T04:11:54;32.42;;;20.42;;
23714;SDS011;12036;50.858;4.472;2023-04-22T04:14:20;34.90;;;20.52;;
23714;SDS011;12036;50.858;4.472;2023-04-22T04:16:46;35.05;;;21.38;;
23714;SDS011;12036;50.858;4.472;2023-04-22T04:19:12;37.78;;;21.70;;
23714;SDS011;12036;50.858;4.472;2023-04-22T04:21:37;34.78;;;21.65;;
23714;SDS011;12036;50.858;4.472;2023-04-22T04:24:04;33.08;;;21.27;;
23714;SDS011;12036;50.858;4.472;2023-04-22T04:26:30;33.17;;;21.65;;
23714;SDS011;12036;50.858;4.472;2023-04-22T04:28:57;40.45;;;22.23;;
23714;SDS011;12036;50.858;4.472;2023-04-22T04:31:25;33.47;;;20.52;;
23714;SDS011;12036;50.858;4.472;2023-04-22T04:33:52;38.15;;;20.90;;
23714;SDS011;12036;50.858;4.472;2023-04-22T04:36:17;34.13;;;21.33;;
23714;SDS011;12036;50.858;4.472;2023-04-22T04:38:43;39.20;;;22.33;;
23714;SDS011;12036;50.858;4.472;2023-04-22T04:41:09;34.40;;;21.05;;
23714;SDS011;12036;50.858;4.472;2023-04-22T04:43:35;36.45;;;20.30;;
23714;SDS011;12036;50.858;4.472;2023-04-22T04:46:00;35.70;;;21.33;;
23714;SDS011;12036;50.858;4.472;2023-04-22T04:48:26;35.33;;;21.00;;
23714;SDS011;12036;50.858;4.472;2023-04-22T04:50:52;33.75;;;20.45;;
23714;SDS011;12036;50.858;4.472;2023-04-22T04:53:21;37.65;;;20.63;;
23714;SDS011;12036;50.858;4.472;2023-04-22T04:55:47;39.08;;;21.63;;
23714;SDS011;12036;50.858;4.472;2023-04-22T04:58:13;34.00;;;20.30;;
23714;SDS011;12036;50.858;4.472;2023-04-22T05:00:38;33.83;;;20.48;;
23714;SDS011;12036;50.858;4.472;2023-04-22T05:03:04;33.85;;;20.52;;
23714;SDS011;12036;50.858;4.472;2023-04-22T05:05:29;34.22;;;20.33;;
23714;SDS011;12036;50.858;4.472;2023-04-22T05:07:55;36.90;;;21.33;;
23714;SDS011;12036;50.858;4.472;2023-04-22T05:10:21;32.72;;;19.60;;
23714;SDS011;12036;50.858;4.472;2023-04-22T05:12:46;33.00;;;20.98;;
23714;SDS011;12036;50.858;4.472;2023-04-22T05:15:13;34.38;;;19.52;;
23714;SDS011;12036;50.858;4.472;2023-04-22T05:17:39;36.63;;;22.25;;
23714;SDS011;12036;50.858;4.472;2023-04-22T05:20:04;34.83;;;20.17;;
23714;SDS011;12036;50.858;4.472;2023-04-22T05:22:30;34.08;;;19.95;;
23714;SDS011;12036;50.858;4.472;2023-04-22T05:24:56;38.00;;;21.95;;
23714;SDS011;12036;50.858;4.472;2023-04-22T05:27:22;35.33;;;21.23;;
23714;SDS011;12036;50.858;4.472;2023-04-22T05:29:47;32.95;;;20.02;;
23714;SDS011;12036;50.858;4.472;2023-04-22T05:32:13;35.88;;;21.50;;
23714;SDS011;12036;50.858;4.472;2023-04-22T05:34:38;37.00;;;21.58;;
23714;SDS011;12036;50.858;4.472;2023-04-22T05:37:04;37.85;;;21.88;;
23714;SDS011;12036;50.858;4.472;2023-04-22T05:39:30;32.75;;;21.75;;
23714;SDS011;12036;50.858;4.472;2023-04-22T05:41:56;34.63;;;21.67;;
23714;SDS011;12036;50.858;4.472;2023-04-22T05:44:22;34.55;;;21.67;;
23714;SDS011;12036;50.858;4.472;2023-04-22T05:46:47;32.63;;;21.58;;
23714;SDS011;12036;50.858;4.472;2023-04-22T05:49:13;32.33;;;21.05;;
23714;SDS011;12036;50.858;4.472;2023-04-22T05:51:39;34.40;;;21.70;;
23714;SDS011;12036;50.858;4.472;2023-04-22T05:54:04;32.40;;;21.17;;
23714;SDS011;12036;50.858;4.472;2023-04-22T05:56:31;31.10;;;20.85;;
23714;SDS011;12036;50.858;4.472;2023-04-22T05:58:56;33.90;;;20.52;;
23714;SDS011;12036;50.858;4.472;2023-04-22T06:01:22;32.60;;;21.50;;
23714;SDS011;12036;50.858;4.472;2023-04-22T06:03:49;33.25;;;21.20;;
23714;SDS011;12036;50.858;4.472;2023-04-22T06:06:14;33.97;;;21.30;;
23714;SDS011;12036;50.858;4.472;2023-04-22T06:08:40;32.75;;;20.83;;
23714;SDS011;12036;50.858;4.472;2023-04-22T06:11:06;35.00;;;21.80;;
23714;SDS011;12036;50.858;4.472;2023-04-22T06:13:32;28.52;;;20.13;;
23714;SDS011;12036;50.858;4.472;2023-04-22T06:15:57;30.05;;;20.73;;
23714;SDS011;12036;50.858;4.472;2023-04-22T06:18:23;30.30;;;20.15;;
23714;SDS011;12036;50.858;4.472;2023-04-22T06:20:50;30.90;;;19.98;;
23714;SDS011;12036;50.858;4.472;2023-04-22T06:23:15;26.40;;;18.45;;
23714;SDS011;12036;50.858;4.472;2023-04-22T06:25:41;27.52;;;18.88;;
23714;SDS011;12036;50.858;4.472;2023-04-22T06:28:07;29.30;;;19.27;;
23714;SDS011;12036;50.858;4.472;2023-04-22T06:30:33;26.58;;;19.65;;
23714;SDS011;12036;50.858;4.472;2023-04-22T06:32:58;24.85;;;18.45;;
23714;SDS011;12036;50.858;4.472;2023-04-22T06:35:24;28.70;;;19.73;;
23714;SDS011;12036;50.858;4.472;2023-04-22T06:37:50;27.77;;;18.98;;
23714;SDS011;12036;50.858;4.472;2023-04-22T06:40:15;25.05;;;17.95;;
23714;SDS011;12036;50.858;4.472;2023-04-22T06:42:41;24.25;;;17.75;;
23714;SDS011;12036;50.858;4.472;2023-04-22T06:45:07;24.42;;;17.65;;
23714;SDS011;12036;50.858;4.472;2023-04-22T06:47:36;26.48;;;18.40;;
23714;SDS011;12036;50.858;4.472;2023-04-22T06:50:07;25.08;;;17.88;;
23714;SDS011;12036;50.858;4.472;2023-04-22T06:52:34;25.35;;;17.75;;
23714;SDS011;12036;50.858;4.472;2023-04-22T06:55:00;24.75;;;17.85;;
23714;SDS011;12036;50.858;4.472;2023-04-22T06:57:27;26.73;;;17.67;;
23714;SDS011;12036;50.858;4.472;2023-04-22T06:59:53;24.40;;;17.50;;
23714;SDS011;12036;50.858;4.472;2023-04-22T07:02:19;27.13;;;18.15;;
23714;SDS011;12036;50.858;4.472;2023-04-22T07:04:45;24.40;;;17.50;;
23714;SDS011;12036;50.858;4.472;2023-04-22T07:07:11;27.05;;;17.55;;
23714;SDS011;12036;50.858;4.472;2023-04-22T07:09:37;25.80;;;17.27;;
23714;SDS011;12036;50.858;4.472;2023-04-22T07:12:03;24.27;;;17.13;;
23714;SDS011;12036;50.858;4.472;2023-04-22T07:14:29;24.15;;;17.30;;
23714;SDS011;12036;50.858;4.472;2023-04-22T07:16:55;24.85;;;17.67;;
23714;SDS011;12036;50.858;4.472;2023-04-22T07:19:21;25.80;;;17.75;;
23714;SDS011;12036;50.858;4.472;2023-04-22T07:21:47;25.67;;;16.70;;
23714;SDS011;12036;50.858;4.472;2023-04-22T07:24:12;22.52;;;16.50;;
23714;SDS011;12036;50.858;4.472;2023-04-22T07:26:42;22.05;;;16.00;;
23714;SDS011;12036;50.858;4.472;2023-04-22T07:29:08;19.52;;;14.95;;
23714;SDS011;12036;50.858;4.472;2023-04-22T07:31:34;22.98;;;15.27;;
23714;SDS011;12036;50.858;4.472;2023-04-22T07:34:00;21.73;;;15.48;;
23714;SDS011;12036;50.858;4.472;2023-04-22T07:36:26;21.17;;;14.63;;
23714;SDS011;12036;50.858;4.472;2023-04-22T07:38:52;20.02;;;14.88;;
23714;SDS011;12036;50.858;4.472;2023-04-22T07:41:17;21.17;;;14.93;;
23714;SDS011;12036;50.858;4.472;2023-04-22T07:43:43;22.00;;;15.05;;
23714;SDS011;12036;50.858;4.472;2023-04-22T07:46:09;20.92;;;15.00;;
23714;SDS011;12036;50.858;4.472;2023-04-22T07:48:34;20.30;;;14.43;;
23714;SDS011;12036;50.858;4.472;2023-04-22T07:51:00;21.58;;;14.80;;
23714;SDS011;12036;50.858;4.472;2023-04-22T07:53:26;19.98;;;14.60;;
23714;SDS011;12036;50.858;4.472;2023-04-22T07:55:52;21.38;;;14.50;;
23714;SDS011;12036;50.858;4.472;2023-04-22T07:58:19;20.70;;;13.77;;
23714;SDS011;12036;50.858;4.472;2023-04-22T08:00:45;19.10;;;13.90;;
23714;SDS011;12036;50.858;4.472;2023-04-22T08:03:10;20.73;;;13.60;;
23714;SDS011;12036;50.858;4.472;2023-04-22T08:05:37;18.08;;;13.15;;
23714;SDS011;12036;50.858;4.472;2023-04-22T08:08:03;18.27;;;12.98;;
23714;SDS011;12036;50.858;4.472;2023-04-22T08:10:29;20.80;;;12.43;;
23714;SDS011;12036;50.858;4.472;2023-04-22T08:12:55;16.55;;;11.75;;
23714;SDS011;12036;50.858;4.472;2023-04-22T08:15:21;14.25;;;11.02;;
23714;SDS011;12036;50.858;4.472;2023-04-22T08:17:47;13.85;;;10.82;;
23714;SDS011;12036;50.858;4.472;2023-04-22T08:20:13;12.77;;;10.27;;
23714;SDS011;12036;50.858;4.472;2023-04-22T08:22:40;14.95;;;10.35;;
23714;SDS011;12036;50.858;4.472;2023-04-22T08:25:09;15.07;;;10.35;;
23714;SDS011;12036;50.858;4.472;2023-04-22T08:27:35;13.60;;;9.25;;
23714;SDS011;12036;50.858;4.472;2023-04-22T08:30:02;9.93;;;8.38;;
23714;SDS011;12036;50.858;4.472;2023-04-22T08:32:28;10.90;;;8.52;;
23714;SDS011;12036;50.858;4.472;2023-04-22T08:34:54;11.05;;;8.55;;
23714;SDS011;12036;50.858;4.472;2023-04-22T08:37:19;10.48;;;8.10;;
23714;SDS011;12036;50.858;4.472;2023-04-22T08:39:45;9.38;;;7.28;;
23714;SDS011;12036;50.858;4.472;2023-04-22T08:42:11;10.75;;;8.85;;
23714;SDS011;12036;50.858;4.472;2023-04-22T08:44:37;10.77;;;7.85;;
23714;SDS011;12036;50.858;4.472;2023-04-22T08:47:04;13.68;;;7.90;;
23714;SDS011;12036;50.858;4.472;2023-04-22T08:49:30;10.32;;;7.05;;
23714;SDS011;12036;50.858;4.472;2023-04-22T08:51:55;11.65;;;6.93;;
23714;SDS011;12036;50.858;4.472;2023-04-22T08:54:24;12.35;;;6.05;;
23714;SDS011;12036;50.858;4.472;2023-04-22T08:56:50;6.13;;;5.13;;
23714;SDS011;12036;50.858;4.472;2023-04-22T08:59:16;8.68;;;5.18;;
23714;SDS011;12036;50.858;4.472;2023-04-22T09:01:44;6.25;;;5.40;;
23714;SDS011;12036;50.858;4.472;2023-04-22T09:04:13;8.45;;;6.38;;
23714;SDS011;12036;50.858;4.472;2023-04-22T09:06:39;10.63;;;6.03;;
23714;SDS011;12036;50.858;4.472;2023-04-22T09:09:05;8.13;;;6.03;;
23714;SDS011;12036;50.858;4.472;2023-04-22T09:11:32;8.73;;;6.25;;
23714;SDS011;12036;50.858;4.472;2023-04-22T09:13:59;8.15;;;6.40;;
23714;SDS011;12036;50.858;4.472;2023-04-22T09:16:28;9.45;;;6.55;;
23714;SDS011;12036;50.858;4.472;2023-04-22T09:18:54;9.82;;;6.97;;
23714;SDS011;12036;50.858;4.472;2023-04-22T09:21:23;8.50;;;6.63;;
23714;SDS011;12036;50.858;4.472;2023-04-22T09:23:52;9.50;;;7.30;;
23714;SDS011;12036;50.858;4.472;2023-04-22T09:26:19;9.18;;;6.88;;
23714;SDS011;12036;50.858;4.472;2023-04-22T09:28:47;9.40;;;6.70;;
23714;SDS011;12036;50.858;4.472;2023-04-22T09:31:22;10.32;;;7.53;;
23714;SDS011;12036;50.858;4.472;2023-04-22T09:33:49;10.77;;;7.65;;
23714;SDS011;12036;50.858;4.472;2023-04-22T09:36:35;10.68;;;7.60;;
23714;SDS011;12036;50.858;4.472;2023-04-22T09:39:05;10.02;;;8.07;;
23714;SDS011;12036;50.858;4.472;2023-04-22T09:41:35;10.68;;;8.52;;
23714;SDS011;12036;50.858;4.472;2023-04-22T09:44:03;9.07;;;7.75;;
23714;SDS011;12036;50.858;4.472;2023-04-22T09:46:32;13.80;;;9.00;;
23714;SDS011;12036;50.858;4.472;2023-04-22T09:48:59;10.50;;;7.85;;
23714;SDS011;12036;50.858;4.472;2023-04-22T09:51:25;11.63;;;8.50;;
23714;SDS011;12036;50.858;4.472;2023-04-22T09:53:58;12.95;;;8.88;;
23714;SDS011;12036;50.858;4.472;2023-04-22T09:59:07;13.52;;;8.90;;
23714;SDS011;12036;50.858;4.472;2023-04-22T10:01:39;11.82;;;9.20;;
23714;SDS011;12036;50.858;4.472;2023-04-22T10:04:06;15.88;;;10.20;;
23714;SDS011;12036;50.858;4.472;2023-04-22T10:06:38;14.35;;;10.38;;
23714;SDS011;12036;50.858;4.472;2023-04-22T10:09:04;14.55;;;10.52;;
23714;SDS011;12036;50.858;4.472;2023-04-22T10:11:32;15.82;;;10.60;;
23714;SDS011;12036;50.858;4.472;2023-04-22T10:13:58;15.52;;;11.68;;
23714;SDS011;12036;50.858;4.472;2023-04-22T10:16:25;16.55;;;10.43;;
23714;SDS011;12036;50.858;4.472;2023-04-22T10:18:53;14.43;;;10.95;;
23714;SDS011;12036;50.858;4.472;2023-04-22T10:21:20;18.23;;;12.32;;
23714;SDS011;12036;50.858;4.472;2023-04-22T10:23:49;14.48;;;11.57;;
23714;SDS011;12036;50.858;4.472;2023-04-22T10:29:04;16.08;;;11.77;;
23714;SDS011;12036;50.858;4.472;2023-04-22T10:31:31;20.55;;;12.77;;
23714;SDS011;12036;50.858;4.472;2023-04-22T10:34:10;19.92;;;12.65;;
23714;SDS011;12036;50.858;4.472;2023-04-22T10:39:31;17.30;;;12.80;;
23714;SDS011;12036;50.858;4.472;2023-04-22T10:44:46;16.80;;;12.73;;
23714;SDS011;12036;50.858;4.472;2023-04-22T10:47:32;17.67;;;12.88;;
23714;SDS011;12036;50.858;4.472;2023-04-22T10:52:39;20.05;;;13.90;;
23714;SDS011;12036;50.858;4.472;2023-04-22T10:55:05;16.85;;;12.68;;
23714;SDS011;12036;50.858;4.472;2023-04-22T10:57:32;18.38;;;12.90;;
23714;SDS011;12036;50.858;4.472;2023-04-22T11:00:18;16.98;;;13.05;;
23714;SDS011;12036;50.858;4.472;2023-04-22T11:03:04;19.10;;;13.82;;
23714;SDS011;12036;50.858;4.472;2023-04-22T11:05:34;17.67;;;13.45;;
23714;SDS011;12036;50.858;4.472;2023-04-22T11:08:05;17.52;;;12.75;;
23714;SDS011;12036;50.858;4.472;2023-04-22T11:10:40;16.60;;;12.10;;
23714;SDS011;12036;50.858;4.472;2023-04-22T11:15:47;18.88;;;12.65;;
23714;SDS011;12036;50.858;4.472;2023-04-22T11:18:21;15.68;;;11.98;;
23714;SDS011;12036;50.858;4.472;2023-04-22T11:20:50;16.58;;;12.25;;
23714;SDS011;12036;50.858;4.472;2023-04-22T11:23:24;16.95;;;10.75;;
23714;SDS011;12036;50.858;4.472;2023-04-22T11:25:55;16.90;;;10.20;;
23714;SDS011;12036;50.858;4.472;2023-04-22T11:28:21;13.32;;;8.70;;
23714;SDS011;12036;50.858;4.472;2023-04-22T11:30:47;11.90;;;8.70;;
23714;SDS011;12036;50.858;4.472;2023-04-22T11:33:13;11.52;;;8.57;;
23714;SDS011;12036;50.858;4.472;2023-04-22T11:35:40;12.25;;;8.27;;
23714;SDS011;12036;50.858;4.472;2023-04-22T11:38:06;14.23;;;8.80;;
23714;SDS011;12036;50.858;4.472;2023-04-22T11:40:37;11.57;;;8.32;;
23714;SDS011;12036;50.858;4.472;2023-04-22T11:43:04;13.70;;;7.95;;
23714;SDS011;12036;50.858;4.472;2023-04-22T11:45:31;9.98;;;7.93;;
23714;SDS011;12036;50.858;4.472;2023-04-22T11:48:00;11.30;;;8.30;;
23714;SDS011;12036;50.858;4.472;2023-04-22T11:50:27;12.52;;;8.43;;
23714;SDS011;12036;50.858;4.472;2023-04-22T11:52:59;12.82;;;8.50;;
23714;SDS011;12036;50.858;4.472;2023-04-22T11:55:36;9.38;;;7.70;;
23714;SDS011;12036;50.858;4.472;2023-04-22T12:00:35;11.27;;;8.52;;
23714;SDS011;12036;50.858;4.472;2023-04-22T12:03:13;10.68;;;7.93;;
23714;SDS011;12036;50.858;4.472;2023-04-22T12:05:42;9.23;;;7.57;;
23714;SDS011;12036;50.858;4.472;2023-04-22T12:08:20;9.37;;;7.50;;
23714;SDS011;12036;50.858;4.472;2023-04-22T12:10:54;11.15;;;8.13;;
23714;SDS011;12036;50.858;4.472;2023-04-22T12:13:27;11.80;;;8.45;;
23714;SDS011;12036;50.858;4.472;2023-04-22T12:15:55;10.43;;;8.30;;
23714;SDS011;12036;50.858;4.472;2023-04-22T12:18:38;10.55;;;8.52;;
23714;SDS011;12036;50.858;4.472;2023-04-22T12:21:12;10.45;;;7.70;;
23714;SDS011;12036;50.858;4.472;2023-04-22T12:23:59;8.45;;;7.47;;
23714;SDS011;12036;50.858;4.472;2023-04-22T12:26:29;9.80;;;7.57;;
23714;SDS011;12036;50.858;4.472;2023-04-22T12:28:56;10.75;;;8.48;;
23714;SDS011;12036;50.858;4.472;2023-04-22T12:31:23;10.77;;;7.97;;
23714;SDS011;12036;50.858;4.472;2023-04-22T12:33:49;11.25;;;8.30;;
23714;SDS011;12036;50.858;4.472;2023-04-22T12:36:16;8.63;;;7.35;;
23714;SDS011;12036;50.858;4.472;2023-04-22T12:38:42;10.18;;;7.72;;
23714;SDS011;12036;50.858;4.472;2023-04-22T12:41:07;11.80;;;7.78;;
23714;SDS011;12036;50.858;4.472;2023-04-22T12:43:33;10.90;;;8.38;;
23714;SDS011;12036;50.858;4.472;2023-04-22T12:46:03;11.43;;;8.98;;
23714;SDS011;12036;50.858;4.472;2023-04-22T12:48:30;12.63;;;8.10;;
23714;SDS011;12036;50.858;4.472;2023-04-22T12:50:56;11.50;;;8.68;;
23714;SDS011;12036;50.858;4.472;2023-04-22T12:53:23;8.77;;;7.40;;
23714;SDS011;12036;50.858;4.472;2023-04-22T12:55:49;9.85;;;7.78;;
23714;SDS011;12036;50.858;4.472;2023-04-22T12:58:15;11.00;;;7.93;;
23714;SDS011;12036;50.858;4.472;2023-04-22T13:00:40;9.75;;;7.60;;
23714;SDS011;12036;50.858;4.472;2023-04-22T13:03:06;9.50;;;7.60;;
23714;SDS011;12036;50.858;4.472;2023-04-22T13:05:32;10.57;;;7.43;;
23714;SDS011;12036;50.858;4.472;2023-04-22T13:07:57;11.23;;;8.85;;
23714;SDS011;12036;50.858;4.472;2023-04-22T13:10:23;10.20;;;8.30;;
23714;SDS011;12036;50.858;4.472;2023-04-22T13:12:52;11.57;;;8.52;;
23714;SDS011;12036;50.858;4.472;2023-04-22T13:15:18;10.93;;;8.38;;
23714;SDS011;12036;50.858;4.472;2023-04-22T13:17:44;12.20;;;9.13;;
23714;SDS011;12036;50.858;4.472;2023-04-22T13:20:10;13.63;;;9.40;;
23714;SDS011;12036;50.858;4.472;2023-04-22T13:22:38;11.45;;;9.20;;
23714;SDS011;12036;50.858;4.472;2023-04-22T13:25:04;11.23;;;9.10;;
23714;SDS011;12036;50.858;4.472;2023-04-22T13:27:31;11.85;;;9.50;;
23714;SDS011;12036;50.858;4.472;2023-04-22T13:29:56;12.32;;;9.57;;
23714;SDS011;12036;50.858;4.472;2023-04-22T13:32:22;11.55;;;9.32;;
23714;SDS011;12036;50.858;4.472;2023-04-22T13:34:48;12.73;;;10.75;;
23714;SDS011;12036;50.858;4.472;2023-04-22T13:37:14;15.75;;;11.68;;
23714;SDS011;12036;50.858;4.472;2023-04-22T13:39:40;17.67;;;12.13;;
23714;SDS011;12036;50.858;4.472;2023-04-22T13:42:06;20.75;;;14.10;;
23714;SDS011;12036;50.858;4.472;2023-04-22T13:44:32;24.65;;;17.58;;
23714;SDS011;12036;50.858;4.472;2023-04-22T13:46:57;32.08;;;22.15;;
23714;SDS011;12036;50.858;4.472;2023-04-22T13:49:23;34.22;;;21.63;;
23714;SDS011;12036;50.858;4.472;2023-04-22T13:51:50;41.53;;;25.00;;
23714;SDS011;12036;50.858;4.472;2023-04-22T13:54:16;39.90;;;26.92;;
23714;SDS011;12036;50.858;4.472;2023-04-22T13:56:42;40.33;;;25.95;;
23714;SDS011;12036;50.858;4.472;2023-04-22T13:59:08;43.85;;;26.17;;
23714;SDS011;12036;50.858;4.472;2023-04-22T14:01:33;38.17;;;25.98;;
23714;SDS011;12036;50.858;4.472;2023-04-22T14:03:59;39.38;;;26.13;;
23714;SDS011;12036;50.858;4.472;2023-04-22T14:06:25;41.67;;;26.00;;
23714;SDS011;12036;50.858;4.472;2023-04-22T14:08:51;37.75;;;24.25;;
23714;SDS011;12036;50.858;4.472;2023-04-22T14:11:16;41.78;;;26.05;;
23714;SDS011;12036;50.858;4.472;2023-04-22T14:13:42;38.97;;;24.92;;
23714;SDS011;12036;50.858;4.472;2023-04-22T14:16:09;40.00;;;25.88;;
23714;SDS011;12036;50.858;4.472;2023-04-22T14:18:36;63.10;;;34.03;;
23714;SDS011;12036;50.858;4.472;2023-04-22T14:21:04;141.48;;;69.35;;
23714;SDS011;12036;50.858;4.472;2023-04-22T14:23:32;52.67;;;31.33;;
23714;SDS011;12036;50.858;4.472;2023-04-22T14:25:58;38.78;;;25.63;;
23714;SDS011;12036;50.858;4.472;2023-04-22T14:28:24;37.58;;;23.42;;
23714;SDS011;12036;50.858;4.472;2023-04-22T14:30:50;36.65;;;23.70;;
23714;SDS011;12036;50.858;4.472;2023-04-22T14:33:16;37.50;;;24.00;;
23714;SDS011;12036;50.858;4.472;2023-04-22T14:35:42;38.15;;;24.63;;
23714;SDS011;12036;50.858;4.472;2023-04-22T14:38:08;31.15;;;21.42;;
23714;SDS011;12036;50.858;4.472;2023-04-22T14:40:35;31.65;;;20.98;;
23714;SDS011;12036;50.858;4.472;2023-04-22T14:43:02;26.98;;;18.55;;